Ever Unicorn — 9V7963 — position and weather

sailwx.info

Track history (hours):
 
Tides and Currents Weather Stations Pressure Air Temp Water Temp Dewpoint Dewpoint Depression Visibility Wind Speed Wind Dir Waves Ship Positions

Ever Unicorn

Last reported at 2016-Jul-17 01:16 UTC. Time now 2016-Jul-25 08:12 UTC.
Position N 38°16' W 127°56'.
Warning: this ship's position is 8 days out of date.

Length 285 m; draft 10.1 m.

Type: Ship (hazmat cat D). MMSI: 564995000.

Date/timePositionNaut miles runAvg speedWind from/ knotsBaromVisibWave heightAir tempDewpointWater temp
2016-Jul-17 01:16N 38°16' W 127°56'8211.5
2016-Jul-16 18:08N 38°14' W 126°12'2211.2
2016-Jul-16 16:07N 38°13' W 125°43'3111.3
2016-Jul-16 13:23N 38°12' W 125°04'911.0
2016-Jul-16 12:33N 38°12' W 124°52'1110.8
2016-Jul-16 11:33N 38°11' W 124°39'1210.7
2016-Jul-16 10:28N 38°11' W 124°24'1011.2
2016-Jul-16 09:33N 38°11' W 124°11'1211.5
2016-Jul-16 08:33N 38°10' W 123°56'1211.9
2016-Jul-16 07:33N 38°10' W 123°41'1211.8
2016-Jul-16 06:33N 38°09' W 123°26'19 9.3
2016-Jul-16 04:33N 37°58' W 123°08'10 9.6
2016-Jul-16 03:33N 37°53' W 122°57'10 9.6
2016-Jul-16 02:33N 37°49' W 122°46'10 9.5
2016-Jul-16 01:33N 37°47' W 122°35'10 9.8
2016-Jul-16 00:34N 37°48' W 122°22'2 1.6
2016-Jul-15 23:33N 37°48' W 122°20'0 0.0
2016-Jul-15 22:33N 37°48' W 122°20'0 0.0
2016-Jul-15 21:33N 37°48' W 122°20'0 0.0
2016-Jul-15 20:33N 37°48' W 122°20'0 0.0
2016-Jul-15 19:33N 37°48' W 122°20'0 0.0
2016-Jul-15 18:33N 37°48' W 122°20'0 0.0
2016-Jul-15 17:33N 37°48' W 122°20'0 0.0
2016-Jul-15 16:33N 37°48' W 122°20'0 0.0
2016-Jul-15 15:33N 37°48' W 122°20'0 0.0
2016-Jul-15 14:34N 37°48' W 122°20'0 0.0
2016-Jul-15 13:33N 37°48' W 122°20'0 0.0
2016-Jul-15 12:33N 37°48' W 122°20'0 0.0
2016-Jul-15 11:33N 37°48' W 122°20'0 0.0
2016-Jul-15 10:33N 37°48' W 122°20'0 0.0
2016-Jul-15 09:33N 37°48' W 122°20'0 0.0
2016-Jul-15 08:33N 37°48' W 122°20'0 0.0
2016-Jul-15 07:33N 37°48' W 122°20'0 0.0
2016-Jul-15 06:33N 37°48' W 122°20'0 0.0
2016-Jul-15 05:33N 37°48' W 122°20'0 0.0
2016-Jul-15 04:33N 37°48' W 122°20'0 0.0
2016-Jul-15 03:33N 37°48' W 122°20'0 0.0
2016-Jul-15 02:33N 37°48' W 122°20'0 0.0
2016-Jul-15 01:33N 37°48' W 122°20'0 0.0
2016-Jul-15 00:33N 37°48' W 122°20'0 0.0
2016-Jul-14 23:33N 37°48' W 122°20'1 0.8
2016-Jul-14 22:34N 37°49' W 122°19'10 9.6
2016-Jul-14 21:34N 37°48' W 122°32'9 9.5
2016-Jul-14 20:33N 37°41' W 122°40'9 8.8
2016-Jul-14 19:33N 37°33' W 122°40'10 9.7
2016-Jul-14 18:33N 37°23' W 122°40'1010.3
2016-Jul-14 17:33N 37°13' W 122°40'1111.2
2016-Jul-14 16:33N 37°02' W 122°41'1111.2
2016-Jul-14 15:33N 36°50' W 122°42'1111.0
2016-Jul-14 14:33N 36°39' W 122°42'8 8.4
2016-Jul-14 13:33N 36°31' W 122°43'1 1.4
2016-Jul-14 12:33N 36°32' W 122°44'1 1.4
2016-Jul-14 11:33N 36°33' W 122°45'1 1.4
2016-Jul-14 10:33N 36°35' W 122°46'1 1.4
2016-Jul-14 09:33N 36°36' W 122°47'1 1.3
2016-Jul-14 08:33N 36°37' W 122°48'1 1.2
2016-Jul-14 07:34N 36°38' W 122°49'1 1.3
2016-Jul-14 06:33N 36°39' W 122°49'1 1.3
2016-Jul-14 05:33N 36°41' W 122°50'1 1.3
2016-Jul-14 04:33N 36°42' W 122°50'1 1.3
2016-Jul-14 03:33N 36°43' W 122°51'1 1.3
2016-Jul-14 02:33N 36°44' W 122°51'1 1.4
2016-Jul-14 01:33N 36°46' W 122°50'1 1.4
2016-Jul-14 00:33N 36°47' W 122°50'1 1.5
2016-Jul-13 23:33N 36°48' W 122°50'2 1.6
2016-Jul-13 22:33N 36°50' W 122°51'2 1.6
2016-Jul-13 21:33N 36°52' W 122°51'2 1.6
2016-Jul-13 20:33N 36°53' W 122°51'2 1.7
2016-Jul-13 19:33N 36°55' W 122°51'2 1.7
2016-Jul-13 18:33N 36°57' W 122°51'2 1.6
2016-Jul-13 17:34N 36°58' W 122°52'2 1.6
2016-Jul-13 16:33N 36°60' W 122°52'2 1.6
2016-Jul-13 15:33N 37°01' W 122°52'1 0.5
2016-Jul-13 14:33N 37°01' W 122°51'1212.5
2016-Jul-13 13:33N 36°52' W 122°42'1212.5
2016-Jul-13 12:33N 36°42' W 122°32'1312.7
2016-Jul-13 11:33N 36°32' W 122°22'1212.2
2016-Jul-13 10:33N 36°21' W 122°15'1211.8
2016-Jul-13 09:33N 36°11' W 122°08'1211.7
2016-Jul-13 08:33N 36°01' W 122°00'1111.2
2016-Jul-13 07:33N 35°51' W 121°53'1111.2
2016-Jul-13 06:33N 35°41' W 121°46'1111.2
2016-Jul-13 05:33N 35°32' W 121°39'1111.3
2016-Jul-13 04:33N 35°22' W 121°32'1211.7
2016-Jul-13 03:33N 35°12' W 121°25'1212.1
2016-Jul-13 02:33N 35°02' W 121°17'1212.5
2016-Jul-13 01:33N 34°51' W 121°09'1212.0
2016-Jul-13 00:33N 34°41' W 121°02'1211.9
2016-Jul-12 23:33N 34°30' W 120°55'1110.9
2016-Jul-12 22:33N 34°24' W 120°43'1311.4
2016-Jul-12 21:27N 34°21' W 120°29'2311.4
2016-Jul-12 19:28N 34°15' W 120°02'1211.3
2016-Jul-12 18:27N 34°12' W 119°49'1111.1
2016-Jul-12 17:25N 34°09' W 119°36'1011.5
2016-Jul-12 16:33N 34°06' W 119°24'1111.0
2016-Jul-12 15:33N 34°03' W 119°11'1111.3
2016-Jul-12 14:33N 33°57' W 118°60'1111.4
2016-Jul-12 13:33N 33°51' W 118°48'1111.4
2016-Jul-12 12:33N 33°46' W 118°36'1111.4
2016-Jul-12 11:33N 33°40' W 118°24'8 7.9
2016-Jul-12 10:34N 33°43' W 118°15'1 1.0
2016-Jul-12 09:25N 33°44' W 118°15'0 0.0
2016-Jul-12 08:32N 33°44' W 118°15'0 0.1
2016-Jul-12 07:33N 33°44' W 118°15'0 0.0
2016-Jul-12 06:33N 33°44' W 118°15'0 0.0
2016-Jul-12 05:33N 33°44' W 118°15'0 0.1
2016-Jul-12 04:33N 33°44' W 118°15'0 0.0
2016-Jul-12 03:33N 33°44' W 118°15'0 0.0
2016-Jul-12 02:33N 33°44' W 118°15'0 0.0
2016-Jul-12 01:33N 33°44' W 118°15'0 0.0
2016-Jul-12 00:33N 33°44' W 118°15'0 0.0
2016-Jul-11 23:33N 33°44' W 118°15'0 0.0
2016-Jul-11 22:33N 33°44' W 118°15'0 0.0
2016-Jul-11 21:33N 33°44' W 118°15'0 0.0
2016-Jul-11 20:33N 33°44' W 118°15'0 0.0
2016-Jul-11 19:33N 33°44' W 118°15'0 0.0
2016-Jul-11 18:33N 33°44' W 118°15'0 0.1
2016-Jul-11 17:33N 33°44' W 118°15'0 0.0
2016-Jul-11 16:33N 33°44' W 118°15'0 0.0
2016-Jul-11 15:33N 33°44' W 118°15'0 0.0
2016-Jul-11 14:33N 33°44' W 118°15'0 0.0
2016-Jul-11 13:33N 33°44' W 118°15'0 0.0
2016-Jul-11 12:27N 33°44' W 118°15'0 0.1
2016-Jul-11 11:28N 33°44' W 118°15'0 0.1
2016-Jul-11 10:33N 33°44' W 118°15'0 0.0
2016-Jul-11 09:30N 33°44' W 118°15'0 0.1
2016-Jul-11 08:32N 33°44' W 118°15'0 0.1
2016-Jul-11 07:33N 33°44' W 118°15'0 0.0
2016-Jul-11 06:33N 33°44' W 118°15'0 0.0
2016-Jul-11 04:33N 33°44' W 118°15'0 0.0
2016-Jul-11 03:33N 33°44' W 118°15'0 0.0
2016-Jul-11 02:33N 33°44' W 118°15'0 0.0
2016-Jul-11 01:33N 33°44' W 118°15'0 0.0
2016-Jul-11 00:33N 33°44' W 118°15'0 0.0
2016-Jul-10 23:33N 33°44' W 118°15'0 0.1
2016-Jul-10 22:33N 33°44' W 118°15'5 5.1
2016-Jul-10 21:33N 33°39' W 118°13'7 6.6
2016-Jul-10 20:33N 33°36' W 118°20'8 8.0
2016-Jul-10 19:33N 33°36' W 118°30'9 8.8
2016-Jul-10 18:33N 33°36' W 118°40'1111.2
2016-Jul-10 17:33N 33°37' W 118°54'1111.0
2016-Jul-10 16:33N 33°38' W 119°07'2211.2
2016-Jul-10 14:33N 33°38' W 119°34'1111.2
2016-Jul-10 13:33N 33°38' W 119°47'1211.3
2016-Jul-10 12:28N 33°38' W 120°02'1011.1
2016-Jul-10 11:33N 33°38' W 120°14'1111.0
2016-Jul-10 10:33N 33°38' W 120°27'1111.0
2016-Jul-10 09:33N 33°38' W 120°41'1211.2
2016-Jul-10 08:27N 33°38' W 120°55'1011.1
2016-Jul-10 07:33N 33°38' W 121°07'1611.1
2016-Jul-10 06:09N 33°38' W 121°26'3011.4
2016-Jul-10 03:32N 33°38' W 122°02'1512.8
2016-Jul-10 02:20N 33°38' W 122°20'1013.0
2016-Jul-10 01:33N 33°38' W 122°33'5513.0
2016-Jul-09 21:19N 33°38' W 123°39'1012.7
2016-Jul-09 20:33N 33°38' W 123°50'1312.8
2016-Jul-09 19:33N 33°38' W 124°06'  
Track history (hours):
 
Tides and Currents Weather Stations Pressure Air Temp Water Temp Dewpoint Dewpoint Depression Visibility Wind Speed Wind Dir Waves Ship Positions

Ever Unicorn

Last reported at 2016-Jul-17 01:16 UTC. Time now 2016-Jul-25 08:12 UTC.
Position N 38°16' W 127°56'.
Warning: this ship's position is 8 days out of date.

Length 285 m; draft 10.1 m.

Type: Ship (hazmat cat D). MMSI: 564995000.

Date/timePositionNaut miles runAvg speedWind from/ knotsBaromVisibWave heightAir tempDewpointWater temp
2016-Jul-17 01:16N 38°16' W 127°56'8211.5
2016-Jul-16 18:08N 38°14' W 126°12'2211.2
2016-Jul-16 16:07N 38°13' W 125°43'3111.3
2016-Jul-16 13:23N 38°12' W 125°04'911.0
2016-Jul-16 12:33N 38°12' W 124°52'1110.8
2016-Jul-16 11:33N 38°11' W 124°39'1210.7
2016-Jul-16 10:28N 38°11' W 124°24'1011.2
2016-Jul-16 09:33N 38°11' W 124°11'1211.5
2016-Jul-16 08:33N 38°10' W 123°56'1211.9
2016-Jul-16 07:33N 38°10' W 123°41'1211.8
2016-Jul-16 06:33N 38°09' W 123°26'19 9.3
2016-Jul-16 04:33N 37°58' W 123°08'10 9.6
2016-Jul-16 03:33N 37°53' W 122°57'10 9.6
2016-Jul-16 02:33N 37°49' W 122°46'10 9.5
2016-Jul-16 01:33N 37°47' W 122°35'10 9.8
2016-Jul-16 00:34N 37°48' W 122°22'2 1.6
2016-Jul-15 23:33N 37°48' W 122°20'0 0.0
2016-Jul-15 22:33N 37°48' W 122°20'0 0.0
2016-Jul-15 21:33N 37°48' W 122°20'0 0.0
2016-Jul-15 20:33N 37°48' W 122°20'0 0.0
2016-Jul-15 19:33N 37°48' W 122°20'0 0.0
2016-Jul-15 18:33N 37°48' W 122°20'0 0.0
2016-Jul-15 17:33N 37°48' W 122°20'0 0.0
2016-Jul-15 16:33N 37°48' W 122°20'0 0.0
2016-Jul-15 15:33N 37°48' W 122°20'0 0.0
2016-Jul-15 14:34N 37°48' W 122°20'0 0.0
2016-Jul-15 13:33N 37°48' W 122°20'0 0.0
2016-Jul-15 12:33N 37°48' W 122°20'0 0.0
2016-Jul-15 11:33N 37°48' W 122°20'0 0.0
2016-Jul-15 10:33N 37°48' W 122°20'0 0.0
2016-Jul-15 09:33N 37°48' W 122°20'0 0.0
2016-Jul-15 08:33N 37°48' W 122°20'0 0.0
2016-Jul-15 07:33N 37°48' W 122°20'0 0.0
2016-Jul-15 06:33N 37°48' W 122°20'0 0.0
2016-Jul-15 05:33N 37°48' W 122°20'0 0.0
2016-Jul-15 04:33N 37°48' W 122°20'0 0.0
2016-Jul-15 03:33N 37°48' W 122°20'0 0.0
2016-Jul-15 02:33N 37°48' W 122°20'0 0.0
2016-Jul-15 01:33N 37°48' W 122°20'0 0.0
2016-Jul-15 00:33N 37°48' W 122°20'0 0.0
2016-Jul-14 23:33N 37°48' W 122°20'1 0.8
2016-Jul-14 22:34N 37°49' W 122°19'10 9.6
2016-Jul-14 21:34N 37°48' W 122°32'9 9.5
2016-Jul-14 20:33N 37°41' W 122°40'9 8.8
2016-Jul-14 19:33N 37°33' W 122°40'10 9.7
2016-Jul-14 18:33N 37°23' W 122°40'1010.3
2016-Jul-14 17:33N 37°13' W 122°40'1111.2
2016-Jul-14 16:33N 37°02' W 122°41'1111.2
2016-Jul-14 15:33N 36°50' W 122°42'1111.0
2016-Jul-14 14:33N 36°39' W 122°42'8 8.4
2016-Jul-14 13:33N 36°31' W 122°43'1 1.4
2016-Jul-14 12:33N 36°32' W 122°44'1 1.4
2016-Jul-14 11:33N 36°33' W 122°45'1 1.4
2016-Jul-14 10:33N 36°35' W 122°46'1 1.4
2016-Jul-14 09:33N 36°36' W 122°47'1 1.3
2016-Jul-14 08:33N 36°37' W 122°48'1 1.2
2016-Jul-14 07:34N 36°38' W 122°49'1 1.3
2016-Jul-14 06:33N 36°39' W 122°49'1 1.3
2016-Jul-14 05:33N 36°41' W 122°50'1 1.3
2016-Jul-14 04:33N 36°42' W 122°50'1 1.3
2016-Jul-14 03:33N 36°43' W 122°51'1 1.3
2016-Jul-14 02:33N 36°44' W 122°51'1 1.4
2016-Jul-14 01:33N 36°46' W 122°50'1 1.4
2016-Jul-14 00:33N 36°47' W 122°50'1 1.5
2016-Jul-13 23:33N 36°48' W 122°50'2 1.6
2016-Jul-13 22:33N 36°50' W 122°51'2 1.6
2016-Jul-13 21:33N 36°52' W 122°51'2 1.6
2016-Jul-13 20:33N 36°53' W 122°51'2 1.7
2016-Jul-13 19:33N 36°55' W 122°51'2 1.7
2016-Jul-13 18:33N 36°57' W 122°51'2 1.6
2016-Jul-13 17:34N 36°58' W 122°52'2 1.6
2016-Jul-13 16:33N 36°60' W 122°52'2 1.6
2016-Jul-13 15:33N 37°01' W 122°52'1 0.5
2016-Jul-13 14:33N 37°01' W 122°51'1212.5
2016-Jul-13 13:33N 36°52' W 122°42'1212.5
2016-Jul-13 12:33N 36°42' W 122°32'1312.7
2016-Jul-13 11:33N 36°32' W 122°22'1212.2
2016-Jul-13 10:33N 36°21' W 122°15'1211.8
2016-Jul-13 09:33N 36°11' W 122°08'1211.7
2016-Jul-13 08:33N 36°01' W 122°00'1111.2
2016-Jul-13 07:33N 35°51' W 121°53'1111.2
2016-Jul-13 06:33N 35°41' W 121°46'1111.2
2016-Jul-13 05:33N 35°32' W 121°39'1111.3
2016-Jul-13 04:33N 35°22' W 121°32'1211.7
2016-Jul-13 03:33N 35°12' W 121°25'1212.1
2016-Jul-13 02:33N 35°02' W 121°17'1212.5
2016-Jul-13 01:33N 34°51' W 121°09'1212.0
2016-Jul-13 00:33N 34°41' W 121°02'1211.9
2016-Jul-12 23:33N 34°30' W 120°55'1110.9
2016-Jul-12 22:33N 34°24' W 120°43'1311.4
2016-Jul-12 21:27N 34°21' W 120°29'2311.4
2016-Jul-12 19:28N 34°15' W 120°02'1211.3
2016-Jul-12 18:27N 34°12' W 119°49'1111.1
2016-Jul-12 17:25N 34°09' W 119°36'1011.5
2016-Jul-12 16:33N 34°06' W 119°24'1111.0
2016-Jul-12 15:33N 34°03' W 119°11'1111.3
2016-Jul-12 14:33N 33°57' W 118°60'1111.4
2016-Jul-12 13:33N 33°51' W 118°48'1111.4
2016-Jul-12 12:33N 33°46' W 118°36'1111.4
2016-Jul-12 11:33N 33°40' W 118°24'8 7.9
2016-Jul-12 10:34N 33°43' W 118°15'1 1.0
2016-Jul-12 09:25N 33°44' W 118°15'0 0.0
2016-Jul-12 08:32N 33°44' W 118°15'0 0.1
2016-Jul-12 07:33N 33°44' W 118°15'0 0.0
2016-Jul-12 06:33N 33°44' W 118°15'0 0.0
2016-Jul-12 05:33N 33°44' W 118°15'0 0.1
2016-Jul-12 04:33N 33°44' W 118°15'0 0.0
2016-Jul-12 03:33N 33°44' W 118°15'0 0.0
2016-Jul-12 02:33N 33°44' W 118°15'0 0.0
2016-Jul-12 01:33N 33°44' W 118°15'0 0.0
2016-Jul-12 00:33N 33°44' W 118°15'0 0.0
2016-Jul-11 23:33N 33°44' W 118°15'0 0.0
2016-Jul-11 22:33N 33°44' W 118°15'0 0.0
2016-Jul-11 21:33N 33°44' W 118°15'0 0.0
2016-Jul-11 20:33N 33°44' W 118°15'0 0.0
2016-Jul-11 19:33N 33°44' W 118°15'0 0.0
2016-Jul-11 18:33N 33°44' W 118°15'0 0.1
2016-Jul-11 17:33N 33°44' W 118°15'0 0.0
2016-Jul-11 16:33N 33°44' W 118°15'0 0.0
2016-Jul-11 15:33N 33°44' W 118°15'0 0.0
2016-Jul-11 14:33N 33°44' W 118°15'0 0.0
2016-Jul-11 13:33N 33°44' W 118°15'0 0.0
2016-Jul-11 12:27N 33°44' W 118°15'0 0.1
2016-Jul-11 11:28N 33°44' W 118°15'0 0.1
2016-Jul-11 10:33N 33°44' W 118°15'0 0.0
2016-Jul-11 09:30N 33°44' W 118°15'0 0.1
2016-Jul-11 08:32N 33°44' W 118°15'0 0.1
2016-Jul-11 07:33N 33°44' W 118°15'0 0.0
2016-Jul-11 06:33N 33°44' W 118°15'0 0.0
2016-Jul-11 04:33N 33°44' W 118°15'0 0.0
2016-Jul-11 03:33N 33°44' W 118°15'0 0.0
2016-Jul-11 02:33N 33°44' W 118°15'0 0.0
2016-Jul-11 01:33N 33°44' W 118°15'0 0.0
2016-Jul-11 00:33N 33°44' W 118°15'0 0.0
2016-Jul-10 23:33N 33°44' W 118°15'0 0.1
2016-Jul-10 22:33N 33°44' W 118°15'5 5.1
2016-Jul-10 21:33N 33°39' W 118°13'7 6.6
2016-Jul-10 20:33N 33°36' W 118°20'8 8.0
2016-Jul-10 19:33N 33°36' W 118°30'9 8.8
2016-Jul-10 18:33N 33°36' W 118°40'1111.2
2016-Jul-10 17:33N 33°37' W 118°54'1111.0
2016-Jul-10 16:33N 33°38' W 119°07'2211.2
2016-Jul-10 14:33N 33°38' W 119°34'1111.2
2016-Jul-10 13:33N 33°38' W 119°47'1211.3
2016-Jul-10 12:28N 33°38' W 120°02'1011.1
2016-Jul-10 11:33N 33°38' W 120°14'1111.0
2016-Jul-10 10:33N 33°38' W 120°27'1111.0
2016-Jul-10 09:33N 33°38' W 120°41'1211.2
2016-Jul-10 08:27N 33°38' W 120°55'1011.1
2016-Jul-10 07:33N 33°38' W 121°07'1611.1
2016-Jul-10 06:09N 33°38' W 121°26'3011.4
2016-Jul-10 03:32N 33°38' W 122°02'1512.8
2016-Jul-10 02:20N 33°38' W 122°20'1013.0
2016-Jul-10 01:33N 33°38' W 122°33'5513.0
2016-Jul-09 21:19N 33°38' W 123°39'1012.7
2016-Jul-09 20:33N 33°38' W 123°50'1312.8
2016-Jul-09 19:33N 33°38' W 124°06'  

Dump ship's entire track history